Idria, California
Current Conditions -  °F | °C
As of 12:23 AM on Monday 22 Dec 2014 (Local Time) from KNLC Reporting Station
Overcast Overcast  
Wind Chill: 57°   Ceiling: 1400
Heat Index: 57°   Visibility: NA
Dew Point: 55°   Wind: 7mph
Humidity: 93%   Direction: 160°SSE
Pressure: 30.26"   Gusts: NA
Location:  36.42°N, 120.67°W
Report Text: KNLC 220823Z AUTO 16006KT BKN014 OVC020 14/13 A3026 RMK AO2 T01390128 RVRNO $
Loading
Personal Weather Stations






























Interactive Weather Map New forecast layout! Learn more

10-Day Weather Forecast

Advertisements
Track Severe Weather on mobile